Pagrindinis puslapis
METAR-TAF:

METAR-TAF

Oro uostai :

Wanaham

Lifou, Naujoji Kaledonija

platuma: 20-46S, ilguma: 167-14E, Aukštis: 28 m

METAR: trūkstamas

Laikas: 17:33 (06:33 UTC)

Prognozė

Ataskaita buvo paskelbta 13 valandos ir 33 minutes, ne 17:00 UTC
Prognozė galioja nuo 26 metu 18 UTC su 27 metu 18 UTC
Vėjas 12 kt iš Pietryčių
Matomumas 10 km arba daugiau
Išsisklaidę debesys ne aukštis 1800 ft
Tikimybė 30% :
Laikinai
nuo 27 metu 02 UTC su 27 metu 05 UTC
Vėjas 15 kt iš Pietryčių su gūsio iki 25 kt
lietus

TAF: NWWL 261700Z 2618/2718 13012KT 9999 SCT018 PROB30 TEMPO 2702/2705 13015G25KT SHRA

Orai ataskaitas ir orų prognozės (METAR, TAF).

turimą stotys yra geltonos ir raudonos taškus žemėlapyje.

Perkelti pele per norėdami pamatyti stoties vardą.

Tada spustelėkite, norėdami matyti oro stebėjimo ir prognozės.

Norėdami pakeisti žemėlapį: spustelėkite ant žalios mygtukų su juodo kryžiaus žemyn,; žalią mygtuką su brūkšneliu, jei norite nutolinti; arba žalių rodyklių gretimoms žemėlapius.


METAR-TAF: